Time;durP1;ratioP1;P1;durP2;ratioP2;P2;SDS_P1;SDS_P2;PMS_P1;PMS_P2;Temp;Humidity;BMP_temperature;BMP_pressure;BME280_temperature;BME280_humidity;BME280_pressure;Samples;Min_cycle;Max_cycle;Signal;HPM_P1;HPM_P2
2023/01/08 00:00:13;;;;;;;6.23;5.63;;;8.20;29.60;;;;;;6226095;23;20402;-86
2023/01/08 00:02:40;;;;;;;7.20;5.73;;;7.70;99.90;;;;;;6225009;23;20460;-88
2023/01/08 00:05:07;;;;;;;6.27;5.60;;;8.10;31.80;;;;;;6224846;23;20434;-86
2023/01/08 00:07:34;;;;;;;6.37;5.77;;;8.10;49.10;;;;;;6225402;23;20433;-85
2023/01/08 00:10:01;;;;;;;7.83;7.03;;;8.10;63.20;;;;;;6223731;23;20457;-87
2023/01/08 00:12:28;;;;;;;5.77;5.27;;;8.10;56.00;;;;;;6223327;23;20449;-87
2023/01/08 00:14:56;;;;;;;6.27;5.50;;;8.10;42.10;;;;;;6233378;23;20992;-85
2023/01/08 00:17:23;;;;;;;6.07;5.47;;;8.10;67.30;;;;;;6220526;23;20405;-85
2023/01/08 00:19:50;;;;;;;5.97;5.47;;;8.10;28.40;;;;;;6222222;23;20175;-85
2023/01/08 00:22:17;;;;;;;6.53;5.77;;;8.10;50.20;;;;;;6228066;23;20478;-86
2023/01/08 00:24:43;;;;;;;8.63;6.13;;;8.10;82.40;;;;;;6241421;23;20406;-86
2023/01/08 00:27:10;;;;;;;6.87;6.27;;;8.10;99.90;;;;;;6232146;23;20250;-85
2023/01/08 00:29:37;;;;;;;5.77;4.93;;;8.10;99.90;;;;;;6224674;23;20427;-84
2023/01/08 00:32:06;;;;;;;6.95;6.03;;;7.80;99.90;;;;;;6238115;23;20388;-85
2023/01/08 00:34:32;;;;;;;7.20;5.30;;;8.00;43.60;;;;;;6232405;23;20636;-86
2023/01/08 00:36:59;;;;;;;5.40;5.00;;;7.90;99.90;;;;;;6224380;23;20210;-85
2023/01/08 00:39:26;;;;;;;5.85;4.78;;;8.00;99.90;;;;;;6227213;23;20250;-86
2023/01/08 00:41:53;;;;;;;6.97;6.00;;;7.90;96.00;;;;;;6232340;23;20195;-86
2023/01/08 00:44:19;;;;;;;7.38;6.45;;;7.80;99.90;;;;;;6223821;23;20446;-85
2023/01/08 00:46:46;;;;;;;6.10;5.60;;;7.80;65.40;;;;;;6232436;23;20404;-85
2023/01/08 00:49:14;;;;;;;6.70;5.93;;;7.80;99.90;;;;;;6243156;23;20445;-84
2023/01/08 00:51:41;;;;;;;6.53;5.93;;;7.80;99.90;;;;;;6242404;23;20227;-86
2023/01/08 00:54:10;;;;;;;13.07;6.27;;;7.80;99.90;;;;;;6242323;23;20421;-86
2023/01/08 00:56:37;;;;;;;6.85;6.15;;;7.80;99.90;;;;;;6234247;22;20441;-85
2023/01/08 00:59:04;;;;;;;8.20;6.70;;;7.70;99.90;;;;;;6230956;23;20199;-86
2023/01/08 01:01:30;;;;;;;9.73;6.45;;;7.70;99.90;;;;;;6236464;23;20489;-85
2023/01/08 01:03:57;;;;;;;8.23;5.93;;;7.60;99.90;;;;;;6225602;23;20195;-86
2023/01/08 01:06:25;;;;;;;7.40;6.13;;;7.60;99.90;;;;;;6223531;23;20616;-86
2023/01/08 01:20:15;;;;;;;;;;;;;;;;;;;;;
2023/01/08 01:34:30;;;;;;;6.80;6.20;;;7.30;99.90;;;;;;5934397;24;20534;-88
2023/01/08 01:58:27;;;;;;;;;;;;;;;;;;;;;
2023/01/08 02:00:53;;;;;;;7.05;6.35;;;7.10;99.90;;;;;;6208960;22;20202;-85
2023/01/08 02:03:22;;;;;;;9.00;6.95;;;7.00;99.90;;;;;;6264293;22;20194;-86
2023/01/08 02:05:54;;;;;;;6.45;5.85;;;7.00;99.90;;;;;;6271248;22;20166;-86
2023/01/08 02:08:33;;;;;;;6.28;5.68;;;6.90;99.90;;;;;;6269110;22;20163;-87
2023/01/08 02:11:07;;;;;;;7.85;7.03;;;6.90;99.90;;;;;;6256772;22;20206;-84
2023/01/08 02:13:38;;;;;;;8.82;6.95;;;6.90;99.90;;;;;;6241199;23;20147;-83
2023/01/08 02:16:11;;;;;;;8.98;6.70;;;6.90;99.90;;;;;;6235832;23;20247;-86
2023/01/08 02:18:44;;;;;;;7.93;7.22;;;6.90;99.90;;;;;;6225296;23;20166;-86
2023/01/08 02:21:16;;;;;;;9.30;7.43;;;6.90;99.90;;;;;;6225540;23;20195;-84
2023/01/08 02:23:48;;;;;;;7.50;6.90;;;6.90;99.90;;;;;;6233846;23;20183;-85
2023/01/08 02:26:24;;;;;;;7.97;7.15;;;6.70;1.00;;;;;;6241520;23;20260;-85
2023/01/08 02:28:57;;;;;;;8.90;7.25;;;6.80;99.90;;;;;;6236815;23;20162;-86
2023/01/08 02:31:26;;;;;;;7.80;7.10;;;6.80;99.90;;;;;;6229355;23;20262;-86
2023/01/08 02:33:53;;;;;;;8.80;7.78;;;6.80;99.90;;;;;;6233270;23;20227;-86
2023/01/08 02:36:35;;;;;;;8.93;7.95;;;6.80;1.00;;;;;;6233346;23;20349;-86
2023/01/08 02:39:15;;;;;;;8.68;7.78;;;6.70;99.90;;;;;;6230119;23;20191;-85
2023/01/08 02:42:09;;;;;;;7.65;6.95;;;6.70;1.00;;;;;;6226105;23;20198;-85
2023/01/08 02:44:47;;;;;;;8.43;7.63;;;6.40;1.00;;;;;;6224512;23;20243;-85
2023/01/08 02:47:21;;;;;;;9.75;7.68;;;6.70;1.00;;;;;;6222535;23;20238;-85
2023/01/08 02:49:54;;;;;;;9.40;8.50;;;6.70;1.00;;;;;;6222650;23;20215;-85
2023/01/08 02:52:21;;;;;;;8.95;8.02;;;6.70;1.00;;;;;;6222045;23;20250;-86
2023/01/08 02:54:49;;;;;;;9.18;7.75;;;6.60;1.00;;;;;;6221649;23;20258;-87
2023/01/08 02:57:18;;;;;;;9.00;8.02;;;6.70;1.00;;;;;;6221154;23;20507;-86
2023/01/08 02:59:47;;;;;;;9.80;8.38;;;6.60;1.00;;;;;;6222353;23;20234;-86
2023/01/08 03:02:14;;;;;;;8.90;8.07;;;6.60;1.00;;;;;;6223266;23;20238;-86
2023/01/08 03:04:48;;;;;;;10.73;8.23;;;6.60;1.00;;;;;;6223042;23;20183;-86
2023/01/08 03:07:15;;;;;;;8.85;7.75;;;6.60;1.00;;;;;;6231095;23;20163;-85
2023/01/08 03:09:43;;;;;;;8.30;7.38;;;6.30;1.00;;;;;;6241254;23;20238;-85
2023/01/08 03:12:15;;;;;;;9.23;8.43;;;6.60;1.00;;;;;;6241740;23;20199;-84
2023/01/08 03:14:47;;;;;;;8.48;7.68;;;6.60;1.00;;;;;;6242312;23;20175;-84
2023/01/08 03:17:19;;;;;;;10.10;8.80;;;6.50;1.00;;;;;;6239164;23;20163;-86
2023/01/08 03:19:50;;;;;;;9.00;8.10;;;6.50;1.00;;;;;;6226745;23;20238;-86
2023/01/08 03:22:19;;;;;;;9.15;7.80;;;6.50;1.00;;;;;;6223907;23;20195;-86
2023/01/08 03:24:51;;;;;;;9.10;8.20;;;6.40;1.00;;;;;;6221952;23;20198;-86
2023/01/08 03:27:19;;;;;;;11.60;8.55;;;6.40;1.00;;;;;;6223689;23;20187;-86
2023/01/08 03:29:51;;;;;;;9.45;8.55;;;6.50;1.00;;;;;;6222765;23;20254;-87
2023/01/08 03:32:19;;;;;;;8.43;7.63;;;6.50;1.00;;;;;;6226946;23;20664;-84
2023/01/08 03:34:48;;;;;;;9.30;8.40;;;6.50;1.00;;;;;;6243150;22;20166;-85
2023/01/08 03:37:19;;;;;;;10.73;8.55;;;6.50;1.00;;;;;;6236232;23;20207;-85
2023/01/08 03:39:52;;;;;;;8.00;7.25;;;6.50;1.00;;;;;;6227209;23;20163;-84
2023/01/08 03:42:20;;;;;;;8.73;7.32;;;6.50;1.00;;;;;;6236712;22;20329;-83
2023/01/08 03:44:48;;;;;;;8.80;7.95;;;6.50;1.00;;;;;;6221471;23;20207;-83
2023/01/08 03:47:16;;;;;;;8.80;7.93;;;6.50;1.00;;;;;;6222680;23;20254;-84
2023/01/08 03:49:44;;;;;;;9.00;8.07;;;6.50;1.00;;;;;;6223301;23;20267;-86
2023/01/08 03:52:21;;;;;;;8.95;8.05;;;6.40;1.00;;;;;;6223785;23;20584;-85
2023/01/08 03:54:48;;;;;;;9.48;8.60;;;6.50;1.00;;;;;;6223943;23;20159;-86
2023/01/08 03:57:15;;;;;;;12.00;8.35;;;6.50;1.00;;;;;;6224556;23;20207;-85
2023/01/08 03:59:42;;;;;;;8.63;7.68;;;6.80;1.00;;;;;;6225095;23;20676;-84
2023/01/08 04:02:11;;;;;;;9.38;8.50;;;6.50;1.00;;;;;;6229368;23;20256;-83
2023/01/08 04:04:38;;;;;;;11.88;8.35;;;6.50;1.00;;;;;;6221583;23;20213;-84
2023/01/08 04:07:08;;;;;;;9.88;8.85;;;6.50;1.00;;;;;;6226205;23;20203;-84
2023/01/08 04:09:35;;;;;;;8.95;8.15;;;6.50;1.00;;;;;;6222922;23;20179;-83
2023/01/08 04:12:02;;;;;;;10.50;8.80;;;6.40;1.00;;;;;;6222646;23;20591;-83
2023/01/08 04:14:28;;;;;;;12.63;9.27;;;6.40;1.00;;;;;;6227562;23;20236;-87
2023/01/08 04:16:55;;;;;;;11.48;10.27;;;6.40;1.00;;;;;;6228204;23;20186;-86
2023/01/08 04:19:23;;;;;;;9.80;7.85;;;6.30;1.00;;;;;;6223957;23;20242;-86
2023/01/08 04:21:52;;;;;;;13.15;9.45;;;6.40;1.00;;;;;;6222648;23;20219;-86
2023/01/08 04:24:20;;;;;;;10.10;9.15;;;6.30;1.00;;;;;;6224079;23;20201;-86
2023/01/08 04:26:47;;;;;;;10.13;9.13;;;6.20;1.00;;;;;;6224139;23;20179;-86
2023/01/08 04:29:13;;;;;;;9.38;8.10;;;6.20;1.00;;;;;;6224460;23;20186;-86
2023/01/08 04:31:41;;;;;;;11.50;8.73;;;6.30;1.00;;;;;;6227063;23;20191;-86
2023/01/08 04:34:07;;;;;;;10.25;7.53;;;6.30;1.00;;;;;;6224644;23;20199;-86
2023/01/08 04:36:36;;;;;;;15.63;9.32;;;6.40;1.00;;;;;;6224958;23;20203;-86
2023/01/08 04:39:03;;;;;;;13.48;9.85;;;6.40;1.00;;;;;;6224216;23;20227;-86
2023/01/08 04:41:30;;;;;;;14.10;10.98;;;6.90;1.00;;;;;;6224096;23;20598;-86
2023/01/08 04:43:57;;;;;;;9.85;8.45;;;6.40;1.00;;;;;;6223796;23;20254;-86
2023/01/08 04:46:23;;;;;;;12.02;8.65;;;6.40;1.00;;;;;;6223372;23;20179;-86
2023/01/08 04:48:50;;;;;;;10.15;9.13;;;6.30;1.00;;;;;;6224387;23;20198;-86
2023/01/08 04:51:17;;;;;;;11.27;9.57;;;6.30;1.00;;;;;;6223217;23;20198;-86
2023/01/08 04:53:45;;;;;;;10.43;8.23;;;6.30;1.00;;;;;;6223706;23;20214;-86
2023/01/08 04:56:12;;;;;;;10.05;9.02;;;5.80;1.00;;;;;;6231640;22;20179;-86
2023/01/08 04:58:40;;;;;;;9.73;8.02;;;6.20;1.00;;;;;;6225295;23;20206;-86
2023/01/08 05:01:11;;;;;;;9.95;8.63;;;6.10;1.00;;;;;;6224268;23;20235;-86
2023/01/08 05:03:38;;;;;;;11.55;9.07;;;6.00;1.00;;;;;;6229019;23;20179;-85
2023/01/08 05:06:06;;;;;;;9.10;8.20;;;6.10;1.00;;;;;;6243243;23;20202;-84
2023/01/08 05:08:33;;;;;;;12.20;9.15;;;6.10;1.00;;;;;;6243168;23;20187;-85
2023/01/08 05:11:02;;;;;;;9.85;8.77;;;6.30;1.00;;;;;;6243137;22;20524;-83
2023/01/08 05:13:29;;;;;;;10.23;8.80;;;6.40;1.00;;;;;;6243453;22;20167;-84
2023/01/08 05:15:59;;;;;;;9.13;8.27;;;6.40;1.00;;;;;;6240145;23;20183;-85
2023/01/08 05:18:26;;;;;;;9.48;7.68;;;6.50;1.00;;;;;;6224631;23;20170;-85
2023/01/08 05:20:53;;;;;;;9.65;8.45;;;6.50;1.00;;;;;;6224299;23;20290;-87
2023/01/08 05:23:20;;;;;;;9.48;8.52;;;6.50;1.00;;;;;;6222347;23;20565;-87
2023/01/08 05:25:46;;;;;;;9.30;8.40;;;6.50;99.90;;;;;;6224151;23;20182;-84
2023/01/08 05:28:15;;;;;;;8.43;7.40;;;6.50;99.90;;;;;;6225046;23;20205;-86
2023/01/08 05:30:41;;;;;;;8.68;7.32;;;6.50;99.90;;;;;;6242478;22;20195;-84
2023/01/08 05:33:08;;;;;;;9.10;8.20;;;6.70;1.00;;;;;;6244302;22;20171;-85
2023/01/08 05:35:35;;;;;;;8.00;7.32;;;6.50;99.90;;;;;;6242794;22;20206;-87
2023/01/08 05:38:02;;;;;;;10.25;8.77;;;6.50;99.90;;;;;;6243572;22;20235;-87
2023/01/08 05:40:28;;;;;;;9.27;8.13;;;6.50;99.90;;;;;;6236414;23;20206;-86
2023/01/08 05:42:55;;;;;;;10.23;7.05;;;6.50;99.90;;;;;;6224431;23;20180;-86
2023/01/08 05:45:23;;;;;;;8.80;7.88;;;6.50;99.90;;;;;;6224398;23;20695;-86
2023/01/08 05:47:50;;;;;;;8.88;7.53;;;6.60;99.90;;;;;;6225339;23;20213;-86
2023/01/08 05:50:17;;;;;;;9.35;8.43;;;6.50;1.00;;;;;;6223099;23;20203;-85
2023/01/08 05:52:44;;;;;;;8.00;7.30;;;6.60;99.90;;;;;;6222865;23;20254;-85
2023/01/08 05:55:11;;;;;;;9.25;8.30;;;6.60;99.90;;;;;;6223547;23;20339;-85
2023/01/08 05:57:38;;;;;;;9.98;8.85;;;6.70;99.90;;;;;;6228540;23;20174;-84
2023/01/08 06:00:07;;;;;;;8.05;7.45;;;6.60;99.90;;;;;;6227438;23;20544;-84
2023/01/08 06:02:35;;;;;;;8.30;7.47;;;6.70;99.90;;;;;;6220565;23;20183;-86
2023/01/08 06:05:02;;;;;;;8.63;7.82;;;6.70;99.90;;;;;;6222027;23;20183;-85
2023/01/08 06:07:29;;;;;;;9.07;7.43;;;6.70;99.90;;;;;;6222360;23;20253;-86
2023/01/08 06:09:56;;;;;;;10.23;7.50;;;6.80;99.90;;;;;;6222692;23;20206;-85
2023/01/08 06:12:23;;;;;;;16.80;8.13;;;6.80;99.90;;;;;;6224174;23;20520;-86
2023/01/08 06:14:50;;;;;;;8.82;7.88;;;6.80;99.90;;;;;;6223904;23;20294;-85
2023/01/08 06:17:16;;;;;;;9.02;7.68;;;6.80;99.90;;;;;;6223172;23;20258;-85
2023/01/08 06:19:46;;;;;;;10.32;8.30;;;6.90;99.90;;;;;;6223620;23;20207;-86
2023/01/08 06:22:13;;;;;;;8.27;6.95;;;6.90;99.90;;;;;;6223447;23;20207;-86
2023/01/08 06:24:39;;;;;;;7.70;6.78;;;6.80;99.90;;;;;;6223968;23;20682;-85
2023/01/08 06:27:06;;;;;;;8.80;7.80;;;6.80;99.90;;;;;;6233722;23;20179;-84
2023/01/08 06:29:33;;;;;;;9.55;8.02;;;6.80;99.90;;;;;;6232199;23;20508;-85
2023/01/08 06:32:00;;;;;;;8.65;7.72;;;6.80;99.90;;;;;;6224462;23;20707;-85
2023/01/08 06:34:27;;;;;;;8.55;7.75;;;6.80;99.90;;;;;;6239659;23;20183;-84
2023/01/08 06:36:55;;;;;;;7.25;6.65;;;6.80;99.90;;;;;;6240570;23;20180;-84
2023/01/08 06:39:22;;;;;;;7.68;6.85;;;;;;;;;;6236294;23;20211;-85
2023/01/08 06:41:49;;;;;;;9.30;7.20;;;6.90;99.90;;;;;;6237181;23;20186;-84
2023/01/08 06:44:16;;;;;;;7.85;7.20;;;6.90;99.90;;;;;;6243869;22;20167;-82
2023/01/08 06:46:43;;;;;;;7.88;7.20;;;6.90;99.90;;;;;;6237365;22;20195;-85
2023/01/08 06:49:10;;;;;;;8.25;7.45;;;6.90;99.90;;;;;;6229099;23;20223;-85
2023/01/08 06:51:37;;;;;;;9.18;7.80;;;6.90;99.90;;;;;;6226060;23;20195;-85
2023/01/08 06:54:05;;;;;;;7.97;7.13;;;6.90;99.90;;;;;;6226295;23;20258;-84
2023/01/08 06:56:32;;;;;;;7.85;6.28;;;6.80;99.90;;;;;;6225845;23;20235;-85
2023/01/08 06:58:59;;;;;;;9.18;7.13;;;6.80;99.90;;;;;;6224768;23;20533;-86
2023/01/08 07:01:26;;;;;;;7.22;6.60;;;7.00;99.90;;;;;;6221948;23;20281;-85
2023/01/08 07:03:53;;;;;;;18.48;6.97;;;7.30;99.90;;;;;;6226436;23;20213;-85
2023/01/08 07:06:21;;;;;;;8.43;7.35;;;7.00;99.90;;;;;;6219163;23;20218;-85
2023/01/08 07:08:49;;;;;;;9.60;7.18;;;7.00;99.90;;;;;;6220814;23;20218;-85
2023/01/08 07:11:17;;;;;;;8.73;6.82;;;7.00;99.90;;;;;;6222784;23;20191;-86
2023/01/08 07:13:44;;;;;;;7.22;6.50;;;7.10;99.90;;;;;;6223629;23;20179;-86
2023/01/08 07:16:13;;;;;;;8.10;5.80;;;7.10;99.90;;;;;;6222750;23;20179;-87
2023/01/08 07:18:41;;;;;;;7.57;6.50;;;7.10;99.90;;;;;;6223903;23;20230;-87
2023/01/08 07:21:09;;;;;;;7.40;6.55;;;7.10;99.90;;;;;;6222898;23;20199;-86
2023/01/08 07:23:37;;;;;;;7.18;6.20;;;7.10;99.90;;;;;;6223529;23;20186;-87
2023/01/08 07:26:05;;;;;;;7.97;7.18;;;7.20;99.90;;;;;;6223054;23;20175;-86
2023/01/08 07:28:34;;;;;;;7.32;6.53;;;7.20;99.90;;;;;;6225534;23;20235;-86
2023/01/08 07:31:03;;;;;;;7.05;6.35;;;7.50;99.90;;;;;;6222581;23;20273;-86
2023/01/08 07:33:30;;;;;;;6.32;5.72;;;7.20;99.90;;;;;;6223118;23;20179;-86
2023/01/08 07:35:58;;;;;;;7.03;5.93;;;7.30;99.90;;;;;;6222362;23;20183;-86
2023/01/08 07:38:25;;;;;;;7.07;6.00;;;7.30;99.90;;;;;;6222688;23;20230;-86
2023/01/08 07:40:52;;;;;;;6.65;6.05;;;7.30;99.90;;;;;;6222741;23;20206;-86
2023/01/08 07:43:18;;;;;;;6.70;6.05;;;7.30;99.90;;;;;;6223438;23;20258;-87
2023/01/08 07:45:47;;;;;;;8.57;7.75;;;7.30;99.90;;;;;;6223194;23;20258;-86
2023/01/08 07:48:15;;;;;;;6.78;5.70;;;7.30;99.90;;;;;;6223368;23;20207;-87
2023/01/08 07:50:43;;;;;;;7.43;6.60;;;7.20;99.90;;;;;;6223783;23;20191;-87
2023/01/08 07:53:11;;;;;;;6.32;5.72;;;7.20;99.90;;;;;;6223339;23;20409;-87
2023/01/08 07:55:37;;;;;;;6.53;5.70;;;7.20;99.90;;;;;;6224291;23;20229;-87
2023/01/08 07:58:09;;;;;;;7.20;5.43;;;7.10;99.90;;;;;;6224043;23;20179;-85
2023/01/08 08:00:36;;;;;;;7.33;6.37;;;;;;;;;;6175220;22;1168492;-89
2023/01/08 08:03:07;;;;;;;8.55;7.65;;;7.20;1.00;;;;;;6258223;23;20198;-88
2023/01/08 08:05:35;;;;;;;8.40;7.60;;;7.20;1.00;;;;;;6260416;22;20147;-88
2023/01/08 08:08:02;;;;;;;7.60;6.68;;;7.20;1.00;;;;;;6276030;22;20186;-89
2023/01/08 08:10:29;;;;;;;8.65;7.35;;;7.10;1.00;;;;;;6268645;22;20193;-89
2023/01/08 08:12:55;;;;;;;9.18;6.43;;;7.30;1.00;;;;;;6224227;23;20627;-88
2023/01/08 08:15:22;;;;;;;6.65;5.85;;;7.30;1.00;;;;;;6226009;23;20188;-87
2023/01/08 08:17:55;;;;;;;6.70;6.10;;;7.30;1.00;;;;;;6226445;23;20563;-88
2023/01/08 08:20:24;;;;;;;7.05;6.35;;;7.30;1.00;;;;;;6224068;23;20175;-88
2023/01/08 08:22:51;;;;;;;7.45;6.75;;;7.60;1.00;;;;;;6222034;23;20576;-88
2023/01/08 08:25:18;;;;;;;7.03;6.32;;;7.30;1.00;;;;;;6224918;23;20171;-88
2023/01/08 08:27:45;;;;;;;7.25;6.55;;;7.30;1.00;;;;;;6225033;23;20179;-88
2023/01/08 08:30:13;;;;;;;7.97;7.28;;;7.30;1.00;;;;;;6227279;23;20179;-88
2023/01/08 08:32:40;;;;;;;8.17;6.67;;;7.40;1.00;;;;;;6228913;23;20195;-88
2023/01/08 08:35:08;;;;;;;10.53;7.27;;;7.40;1.00;;;;;;6235487;23;20402;-87
2023/01/08 08:37:36;;;;;;;7.00;6.30;;;7.40;1.00;;;;;;6244204;22;20406;-88
2023/01/08 08:40:03;;;;;;;10.50;7.38;;;7.40;1.00;;;;;;6245088;22;20179;-89
2023/01/08 08:42:30;;;;;;;8.52;7.63;;;;;;;;;;6235850;22;20203;-88
2023/01/08 08:44:57;;;;;;;7.53;6.38;;;7.50;1.00;;;;;;6228900;23;20222;-89
2023/01/08 08:47:29;;;;;;;8.00;6.35;;;7.40;1.00;;;;;;6230593;23;20210;-89
2023/01/08 08:49:57;;;;;;;6.60;6.10;;;;;;;;;;6232044;23;20175;-90
2023/01/08 08:52:25;;;;;;;6.97;6.30;;;;;;;;;;6227905;23;20423;-90
2023/01/08 08:54:53;;;;;;;5.93;5.47;;;7.70;1.00;;;;;;6229150;23;20437;-90
2023/01/08 08:57:22;;;;;;;6.17;4.97;;;;;;;;;;6228967;23;20389;-89
2023/01/08 08:59:50;;;;;;;6.97;6.30;;;;;;;;;;6229186;23;20412;-89
2023/01/08 09:02:17;;;;;;;7.60;6.13;;;;;;;;;;6234854;23;20426;-90
2023/01/08 09:04:46;;;;;;;6.40;5.10;;;;;;;;;;6240368;23;20434;-90
2023/01/08 09:07:14;;;;;;;7.40;6.30;;;;;;;;;;6236469;23;20402;-89
2023/01/08 09:09:42;;;;;;;9.40;6.53;;;;;;;;;;6239562;23;20377;-89
2023/01/08 09:12:13;;;;;;;6.27;5.67;;;7.80;1.00;;;;;;6229088;23;20413;-89
2023/01/08 09:14:40;;;;;;;7.40;6.20;;;;;;;;;;6225767;23;20395;-89
2023/01/08 09:17:09;;;;;;;6.43;5.83;;;;;;;;;;6226855;23;20883;-89
2023/01/08 09:19:37;;;;;;;7.90;5.97;;;;;;;;;;6228555;23;20414;-89
2023/01/08 09:22:05;;;;;;;5.80;5.10;;;;;;;;;;6236739;23;20431;-90
2023/01/08 09:24:32;;;;;;;6.03;5.53;;;;;;;;;;6235798;23;20429;-90
2023/01/08 09:27:07;;;;;;;6.97;5.70;;;7.90;1.00;;;;;;6233316;23;20410;-90
2023/01/08 09:29:35;;;;;;;6.13;5.50;;;8.00;1.00;;;;;;6225822;23;20370;-89
2023/01/08 09:32:05;;;;;;;5.63;5.03;;;8.00;1.00;;;;;;6227395;23;20476;-89
2023/01/08 09:34:34;;;;;;;5.43;4.93;;;;;;;;;;6226538;23;20421;-89
2023/01/08 09:37:01;;;;;;;5.23;4.73;;;8.00;1.00;;;;;;6224518;23;20385;-88
2023/01/08 09:39:28;;;;;;;5.60;5.10;;;8.10;1.00;;;;;;6223509;23;20493;-89
2023/01/08 09:41:57;;;;;;;6.17;5.57;;;8.00;1.00;;;;;;6225246;23;20454;-89
2023/01/08 09:44:27;;;;;;;5.93;5.40;;;8.10;1.00;;;;;;6228508;23;20406;-88
2023/01/08 09:46:56;;;;;;;6.43;5.40;;;8.00;1.00;;;;;;6224225;23;20744;-88
2023/01/08 09:49:28;;;;;;;5.80;5.40;;;8.00;1.00;;;;;;6223882;23;20406;-89
2023/01/08 09:51:55;;;;;;;6.30;5.73;;;8.00;1.00;;;;;;6223077;23;20500;-89
2023/01/08 09:54:25;;;;;;;5.90;5.40;;;8.00;1.00;;;;;;6231686;23;20464;-90
2023/01/08 09:56:53;;;;;;;6.90;5.53;;;8.10;1.00;;;;;;6221968;23;20447;-89
2023/01/08 09:59:20;;;;;;;7.20;6.37;;;8.00;1.00;;;;;;6221593;23;20412;-89
2023/01/08 10:01:48;;;;;;;5.33;4.83;;;8.00;1.00;;;;;;6222682;23;20521;-88
2023/01/08 10:04:18;;;;;;;6.67;5.50;;;8.10;1.00;;;;;;6223412;23;20410;-88
2023/01/08 10:06:51;;;;;;;7.10;6.50;;;8.10;1.00;;;;;;6234130;23;20370;-90
2023/01/08 10:09:24;;;;;;;6.30;5.70;;;8.30;1.00;;;;;;6237674;22;20430;-90
2023/01/08 10:11:54;;;;;;;5.43;4.93;;;8.10;1.00;;;;;;6232888;23;20416;-90
2023/01/08 10:14:24;;;;;;;6.07;5.57;;;8.10;1.00;;;;;;6234016;23;20361;-89
2023/01/08 10:16:55;;;;;;;7.90;5.40;;;8.10;1.00;;;;;;6233381;23;20366;-89
2023/01/08 10:19:27;;;;;;;6.03;5.53;;;8.10;1.00;;;;;;6236584;23;20395;-90
2023/01/08 10:21:55;;;;;;;6.10;5.50;;;;;;;;;;6236665;23;20195;-90
2023/01/08 10:24:42;;;;;;;7.30;6.60;;;7.80;54.60;;;;;;6232436;23;20953;-90
2023/01/08 10:27:14;;;;;;;6.53;5.93;;;8.00;17.70;;;;;;6233654;23;20206;-90
2023/01/08 10:29:42;;;;;;;7.00;5.40;;;;;;;;;;6235572;23;20206;-90
2023/01/08 10:32:46;;;;;;;;;;;;;;;;;;;;;
2023/01/08 10:46:40;;;;;;;8.33;7.40;;;7.90;99.90;;;;;;6272891;22;20174;-90
2023/01/08 10:49:52;;;;;;;11.13;8.93;;;7.90;99.90;;;;;;6272337;22;20499;-90
2023/01/08 10:55:22;;;;;;;7.97;7.10;;;7.90;99.90;;;;;;6237198;22;20368;-89
2023/01/08 10:57:55;;;;;;;9.23;8.02;;;10.70;99.90;;;;;;6254024;22;20622;-87
2023/01/08 11:00:29;;;;;;;9.43;8.52;;;8.00;99.90;;;;;;6261780;22;20169;-87
2023/01/08 11:02:58;;;;;;;12.20;7.50;;;8.00;99.90;;;;;;6261073;22;20158;-88
2023/01/08 11:05:33;;;;;;;11.27;8.20;;;8.00;99.90;;;;;;6259193;22;20411;-86
2023/01/08 11:08:02;;;;;;;8.10;7.40;;;8.00;99.90;;;;;;6231269;22;20427;-86
2023/01/08 11:10:30;;;;;;;9.82;8.90;;;8.00;99.90;;;;;;6224938;23;20179;-86
2023/01/08 11:12:59;;;;;;;9.10;8.20;;;8.00;99.90;;;;;;6227369;23;20222;-87
2023/01/08 11:15:31;;;;;;;10.47;7.47;;;8.00;99.90;;;;;;6225121;23;20430;-87
2023/01/08 11:18:06;;;;;;;13.37;8.17;;;8.00;99.90;;;;;;6225689;23;20404;-87
2023/01/08 11:20:33;;;;;;;8.37;7.43;;;8.00;99.90;;;;;;6226334;23;20345;-86
2023/01/08 11:23:13;;;;;;;8.97;8.07;;;8.10;99.90;;;;;;6225427;23;20414;-86
2023/01/08 11:25:42;;;;;;;8.63;7.60;;;8.20;99.90;;;;;;6226568;23;20485;-87
2023/01/08 11:28:15;;;;;;;8.10;6.80;;;7.40;99.90;;;;;;6225592;23;20963;-87
2023/01/08 11:30:48;;;;;;;9.33;7.33;;;8.40;99.90;;;;;;6225845;23;20469;-86
2023/01/08 11:33:22;;;;;;;8.37;7.30;;;8.20;99.90;;;;;;6225019;23;20500;-87
2023/01/08 11:35:54;;;;;;;8.60;7.10;;;8.20;99.90;;;;;;6224520;23;20361;-87
2023/01/08 11:38:21;;;;;;;9.10;7.20;;;8.10;99.90;;;;;;6225244;23;20508;-87
2023/01/08 11:40:52;;;;;;;9.17;8.27;;;8.30;99.90;;;;;;6227446;23;20441;-86
2023/01/08 11:43:30;;;;;;;10.27;7.60;;;8.00;99.90;;;;;;6229065;23;20393;-86
2023/01/08 11:46:32;;;;;;;8.73;7.82;;;;;;;;;;6228893;23;20866;-86
2023/01/08 11:49:21;;;;;;;9.50;8.50;;;8.60;99.90;;;;;;6228483;23;20711;-86
2023/01/08 11:52:07;;;;;;;9.17;8.20;;;8.40;99.90;;;;;;6229780;23;20849;-86
2023/01/08 11:55:00;;;;;;;9.18;8.07;;;8.20;99.90;;;;;;6231504;23;20920;-85
2023/01/08 11:57:35;;;;;;;10.60;9.25;;;;;;;;;;6230587;23;20406;-85
2023/01/08 12:00:18;;;;;;;10.90;8.48;;;8.20;99.90;;;;;;6228011;23;20850;-85
2023/01/08 12:02:55;;;;;;;11.57;8.18;;;8.20;99.90;;;;;;6228479;23;20422;-87
2023/01/08 12:05:34;;;;;;;11.43;9.03;;;8.30;99.90;;;;;;6230062;23;20170;-86
2023/01/08 12:08:08;;;;;;;9.80;8.57;;;8.30;99.90;;;;;;6228795;23;20426;-86
2023/01/08 12:10:55;;;;;;;8.20;7.40;;;8.30;99.90;;;;;;6228033;23;20401;-86
2023/01/08 12:13:41;;;;;;;8.30;7.53;;;9.50;99.90;;;;;;6227589;23;20505;-88
2023/01/08 12:16:29;;;;;;;13.60;7.97;;;8.00;99.90;;;;;;6230965;23;20400;-87
2023/01/08 12:19:31;;;;;;;8.60;7.70;;;8.80;99.90;;;;;;6231536;23;20346;-88
2023/01/08 12:22:26;;;;;;;8.73;7.00;;;8.40;99.90;;;;;;6228207;23;20414;-86
2023/01/08 12:25:35;;;;;;;7.47;6.77;;;8.30;99.90;;;;;;6227455;23;20389;-86
2023/01/08 12:28:28;;;;;;;8.67;7.20;;;8.50;99.90;;;;;;6230706;23;20446;-89
2023/01/08 12:35:07;;;;;;;8.53;7.50;;;8.60;99.90;;;;;;6112242;23;20415;-87
2023/01/08 12:37:41;;;;;;;8.97;7.70;;;8.60;99.90;;;;;;6119854;23;20491;-85
2023/01/08 12:40:15;;;;;;;7.77;6.97;;;8.50;99.90;;;;;;6235965;23;20390;-85
2023/01/08 12:42:44;;;;;;;8.50;7.63;;;8.60;99.90;;;;;;6231649;23;20421;-84
2023/01/08 12:45:26;;;;;;;9.00;7.50;;;8.60;99.90;;;;;;6230164;23;20403;-86
2023/01/08 12:47:58;;;;;;;8.30;7.50;;;8.60;99.90;;;;;;6232357;23;20429;-86
2023/01/08 12:50:36;;;;;;;12.30;8.97;;;8.70;99.90;;;;;;6225472;23;20757;-86
2023/01/08 12:53:12;;;;;;;8.83;7.53;;;8.60;90.20;;;;;;6231654;23;20493;-86
2023/01/08 12:55:46;;;;;;;9.20;7.07;;;8.60;90.80;;;;;;6240622;23;20390;-86
2023/01/08 12:58:31;;;;;;;7.93;7.17;;;8.70;99.90;;;;;;6242591;23;20416;-85
2023/01/08 13:01:08;;;;;;;9.63;8.00;;;8.90;36.30;;;;;;6243603;23;20467;-83
2023/01/08 13:03:36;;;;;;;11.23;8.20;;;8.60;99.90;;;;;;6244987;22;20383;-84
2023/01/08 13:06:10;;;;;;;11.97;8.90;;;8.40;99.30;;;;;;6243676;22;20418;-85
2023/01/08 13:08:38;;;;;;;8.97;7.67;;;8.70;1.00;;;;;;6239321;23;20414;-86
2023/01/08 13:11:07;;;;;;;8.80;7.93;;;8.70;1.00;;;;;;6243295;22;20402;-85
2023/01/08 13:13:36;;;;;;;8.83;7.50;;;9.30;1.00;;;;;;6242661;23;20435;-86
2023/01/08 13:16:08;;;;;;;8.70;7.57;;;8.80;94.20;;;;;;6239120;22;20433;-85
2023/01/08 13:18:35;;;;;;;7.90;7.10;;;8.70;1.00;;;;;;6237520;23;20406;-86
2023/01/08 13:21:04;;;;;;;8.83;7.20;;;8.70;1.00;;;;;;6241985;23;20411;-87
2023/01/08 13:23:34;;;;;;;8.87;7.07;;;8.70;1.00;;;;;;6230498;23;20422;-86
2023/01/08 13:26:03;;;;;;;10.63;7.30;;;9.00;99.90;;;;;;6232021;23;20386;-90
2023/01/08 13:28:42;;;;;;;7.70;6.90;;;8.70;1.00;;;;;;6235372;23;20410;-86
2023/01/08 13:31:25;;;;;;;8.80;7.77;;;8.70;81.40;;;;;;6235041;23;20422;-87
2023/01/08 13:33:53;;;;;;;8.83;7.93;;;8.60;5.40;;;;;;6232775;23;20401;-89
2023/01/08 13:36:23;;;;;;;8.07;7.27;;;8.60;99.90;;;;;;6234134;23;20403;-87
2023/01/08 13:39:19;;;;;;;9.63;8.70;;;8.60;25.50;;;;;;6233452;23;20404;-87
2023/01/08 13:41:58;;;;;;;12.53;8.63;;;8.50;59.60;;;;;;6234562;23;20391;-89
2023/01/08 13:44:28;;;;;;;8.83;7.60;;;8.50;87.20;;;;;;6234082;23;20414;-89
2023/01/08 13:46:57;;;;;;;8.97;6.80;;;8.40;99.80;;;;;;6233314;23;20457;-88
2023/01/08 13:49:28;;;;;;;10.37;8.20;;;8.10;99.90;;;;;;6231134;23;20450;-87
2023/01/08 13:51:55;;;;;;;14.37;10.03;;;8.40;99.90;;;;;;6231592;23;20427;-87
2023/01/08 13:54:34;;;;;;;10.73;9.10;;;8.40;99.90;;;;;;6229381;23;20433;-87
2023/01/08 13:57:11;;;;;;;10.73;8.67;;;8.30;99.90;;;;;;6231924;23;20476;-86
2023/01/08 13:59:41;;;;;;;10.20;8.83;;;8.40;99.90;;;;;;6228715;23;20364;-86
2023/01/08 14:02:26;;;;;;;9.47;8.20;;;8.30;99.90;;;;;;6228286;23;20402;-87
2023/01/08 14:04:54;;;;;;;10.57;9.07;;;8.30;99.90;;;;;;6230622;23;20365;-87
2023/01/08 14:07:23;;;;;;;11.93;9.23;;;8.30;99.90;;;;;;6229486;23;20429;-86
2023/01/08 14:09:52;;;;;;;9.47;8.50;;;8.20;99.90;;;;;;6232310;23;20406;-87
2023/01/08 14:12:21;;;;;;;11.27;8.30;;;8.30;99.90;;;;;;6229910;23;20406;-87
2023/01/08 14:14:51;;;;;;;12.17;9.40;;;8.20;99.90;;;;;;6229417;23;20480;-86
2023/01/08 14:17:20;;;;;;;9.50;8.43;;;8.20;99.90;;;;;;6231872;23;20450;-87
2023/01/08 14:19:48;;;;;;;9.30;8.40;;;8.20;99.90;;;;;;6232949;23;20445;-87
2023/01/08 14:22:21;;;;;;;11.50;9.13;;;7.90;99.90;;;;;;6235659;23;20429;-84
2023/01/08 14:24:54;;;;;;;12.10;9.80;;;8.20;99.90;;;;;;6235919;23;20389;-84
2023/01/08 14:27:24;;;;;;;11.10;9.03;;;8.20;99.90;;;;;;6232727;23;20407;-84